Airfield :
LOGIN :

Register | Disclaimer

   EN    FR    IT 

 










Legend :    VFR   Marginal VFR   IFR   Intensive IFR   Very Intensive IFR
Visi :
Ceiling :
>= 8 km
>= 3000ft
5 to 8 km
1000 to 3000 ft
1500m to 5 km
500 to 1000 ft
800 to 1500m
200 to 500 ft
< 800m
< 200 ft
Symbols :   Thunderstorms  Fog  Heavy snow  Heavy precipitations  Wind > 20 kt
SIGMETs :     Misc.  Thunderstorms  Icing  Turbulence  Mountain Waves  Volcanic Ashes






- Airport Elevation : 392 ft
- IATA code : CDG


LFPG - Paris-Aeroport Charles De Gaulle

CURRENT METAR :
  • 011230Z 01012KT 8000 BKN007 BKN048 06/04 Q1025 TEMPO BKN012

EXPIRED METARs :
  • 011200Z 02013KT 9000 BKN007 BKN048 06/04 Q1026 TEMPO BKN012
  • 011130Z 01012G23KT 300V060 9000 BKN009 BKN048 06/04 Q1026 TEMPO BKN012
  • 011100Z 02012KT 9000 BKN008 BKN046 05/03 Q1026 TEMPO BKN012
  • 011030Z 01012KT 8000 BKN008 BKN046 05/03 Q1026 TEMPO BKN012
  • 011000Z 02012KT 360V080 8000 BKN008 BKN046 05/03 Q1026 TEMPO BKN012

TAF TAF LFPG
Valid from the 01 at 12:00 until the 02 at 18:00 UTC


011100Z 0112/0218 02012KT 9999 OVC008 TX05/0112Z TN01/0218Z
BECMG 0112/0114 OVC012
TEMPO 0114/0201 OVC020
PROB30
TEMPO 0123/0210 4000 -DZRA
BECMG 0202/0204 BKN007
TEMPO 0205/0210 BKN004
PROB40
TEMPO 0215/0218 4000 -DZRA BKN004
ATIS : +33 1 48 62 10 92



MET'MAP, your aeronautical weather chart ! - Copyright ORBIFLY December 2007 - Disclaimer

ORBIFLY MET'MAP TEAM :

Programming & Development : Alexandra Zaïnal
Original concept : Baudouin d'Aumeries
Technical & hardware support : Manuel Goepfert
Assistance : Marc-Olivier Méhu




SOURCES & CREDITS :

   NOAA